Time;durP1;ratioP1;P1;durP2;ratioP2;P2;SDS_P1;SDS_P2;PMS_P1;PMS_P2;Temp;Humidity;BMP_temperature;BMP_pressure;BME280_temperature;BME280_humidity;BME280_pressure;Samples;Min_cycle;Max_cycle;Signal;HPM_P1;HPM_P2
2024/04/08 00:00:21;;;;;;;2.37;1.50;;;18.50;93.10;;;;;;5048742;28;20846;-76
2024/04/08 00:02:49;;;;;;;2.53;1.80;;;18.60;93.10;;;;;;5050677;28;20542;-76
2024/04/08 00:05:15;;;;;;;2.30;2.07;;;18.60;93.30;;;;;;5050215;28;20983;-75
2024/04/08 00:07:44;;;;;;;3.00;1.97;;;18.60;93.20;;;;;;5050909;28;20482;-75
2024/04/08 00:10:10;;;;;;;2.23;1.60;;;18.60;93.90;;;;;;5050321;28;20467;-76
2024/04/08 00:12:39;;;;;;;5.70;2.20;;;18.60;93.50;;;;;;5050417;28;20529;-76
2024/04/08 00:15:06;;;;;;;3.83;1.73;;;18.50;93.60;;;;;;5050292;28;20478;-75
2024/04/08 00:17:32;;;;;;;3.60;1.80;;;18.50;94.20;;;;;;5050125;28;21248;-75
2024/04/08 00:19:58;;;;;;;2.90;1.77;;;18.40;93.70;;;;;;5050576;28;20463;-76
2024/04/08 00:22:25;;;;;;;4.67;2.40;;;18.40;94.20;;;;;;5049935;28;20478;-76
2024/04/08 00:24:53;;;;;;;3.20;1.97;;;18.30;94.90;;;;;;5050238;28;20615;-76
2024/04/08 00:27:20;;;;;;;4.00;2.20;;;18.20;95.20;;;;;;5051360;28;20487;-76
2024/04/08 00:29:46;;;;;;;2.73;1.93;;;18.10;96.20;;;;;;5052176;28;20464;-75
2024/04/08 00:32:13;;;;;;;2.47;1.40;;;17.90;96.80;;;;;;5052436;28;20475;-76
2024/04/08 00:34:39;;;;;;;1.73;1.50;;;17.80;97.10;;;;;;5053321;28;20459;-76
2024/04/08 00:37:05;;;;;;;2.20;2.00;;;17.60;97.60;;;;;;5053458;28;20499;-75
2024/04/08 00:39:32;;;;;;;2.03;1.70;;;17.50;97.70;;;;;;5053486;28;20212;-75
2024/04/08 00:42:01;;;;;;;2.40;1.40;;;17.40;98.10;;;;;;5053570;28;21046;-75
2024/04/08 00:44:27;;;;;;;2.40;1.57;;;17.30;98.30;;;;;;5053248;28;20482;-76
2024/04/08 00:46:54;;;;;;;1.90;1.60;;;17.10;98.60;;;;;;5053846;28;20960;-76
2024/04/08 00:49:21;;;;;;;2.23;1.87;;;17.00;98.90;;;;;;5053258;28;20464;-76
2024/04/08 00:51:48;;;;;;;3.10;1.70;;;16.90;99.20;;;;;;5053425;28;20963;-75
2024/04/08 00:54:14;;;;;;;6.93;1.70;;;16.80;99.40;;;;;;5053278;28;20463;-75
2024/04/08 00:56:41;;;;;;;3.10;1.97;;;16.70;99.20;;;;;;5047813;28;20472;-75
2024/04/08 00:59:11;;;;;;;2.30;1.90;;;16.70;99.30;;;;;;5053491;28;20205;-75
2024/04/08 01:01:39;;;;;;;6.70;1.97;;;16.60;99.10;;;;;;5052524;28;20475;-76
2024/04/08 01:04:05;;;;;;;4.13;2.07;;;16.60;99.50;;;;;;5053114;28;20459;-76
2024/04/08 01:06:32;;;;;;;2.67;2.10;;;16.50;99.90;;;;;;5052992;28;20968;-76
2024/04/08 01:08:58;;;;;;;4.67;1.77;;;16.40;99.90;;;;;;5053337;28;20467;-76
2024/04/08 01:11:25;;;;;;;1.87;1.77;;;16.30;99.90;;;;;;5052883;28;20467;-75
2024/04/08 01:13:52;;;;;;;6.07;1.80;;;16.20;99.90;;;;;;5053256;28;20487;-76
2024/04/08 01:16:19;;;;;;;3.13;1.70;;;16.10;99.90;;;;;;5052941;28;20466;-76
2024/04/08 01:18:46;;;;;;;3.83;1.50;;;16.00;99.90;;;;;;5052933;28;20925;-76
2024/04/08 01:21:12;;;;;;;3.00;2.27;;;16.00;99.90;;;;;;5053017;28;20653;-76
2024/04/08 01:23:41;;;;;;;2.20;1.80;;;15.90;99.90;;;;;;5058569;28;20965;-76
2024/04/08 01:26:08;;;;;;;5.90;2.07;;;15.80;99.90;;;;;;5054350;28;20585;-76
2024/04/08 01:28:35;;;;;;;7.40;2.23;;;15.80;99.90;;;;;;5052478;28;20999;-76
2024/04/08 01:31:01;;;;;;;5.20;2.13;;;15.80;99.90;;;;;;5052890;28;20533;-76
2024/04/08 01:33:27;;;;;;;2.90;1.93;;;15.80;99.90;;;;;;5052208;28;20555;-76
2024/04/08 01:35:53;;;;;;;10.23;2.10;;;15.70;99.90;;;;;;5052730;28;20202;-76
2024/04/08 01:38:20;;;;;;;2.47;1.67;;;15.70;99.90;;;;;;5052215;28;20882;-76
2024/04/08 01:40:47;;;;;;;4.33;1.97;;;15.60;99.90;;;;;;5052537;28;20228;-76
2024/04/08 01:43:14;;;;;;;3.57;1.63;;;15.60;99.90;;;;;;5052440;28;20525;-76
2024/04/08 01:45:39;;;;;;;2.93;1.90;;;15.60;99.90;;;;;;5055007;28;20466;-76
2024/04/08 01:48:07;;;;;;;4.03;2.10;;;15.50;99.90;;;;;;5054424;28;20479;-76
2024/04/08 01:50:32;;;;;;;3.40;2.30;;;15.50;99.90;;;;;;5052225;28;20418;-76
2024/04/08 01:52:59;;;;;;;2.67;1.80;;;15.50;99.90;;;;;;5052122;28;20475;-76
2024/04/08 01:55:25;;;;;;;4.63;1.90;;;15.50;99.90;;;;;;5051910;28;20667;-76
2024/04/08 01:57:53;;;;;;;5.67;2.20;;;15.50;99.90;;;;;;5052021;28;20491;-76
2024/04/08 02:00:19;;;;;;;3.73;1.97;;;15.40;99.90;;;;;;5052303;28;20221;-76
2024/04/08 02:02:45;;;;;;;3.37;1.97;;;15.40;99.90;;;;;;5052049;28;20464;-76
2024/04/08 02:05:11;;;;;;;7.40;2.40;;;15.40;99.90;;;;;;5051543;28;20464;-76
2024/04/08 02:07:39;;;;;;;4.63;2.53;;;15.40;99.90;;;;;;5051821;28;20487;-76
2024/04/08 02:10:06;;;;;;;3.63;1.97;;;15.30;99.90;;;;;;5051865;28;20202;-76
2024/04/08 02:12:33;;;;;;;4.77;1.90;;;15.30;99.90;;;;;;5051618;28;20493;-76
2024/04/08 02:15:00;;;;;;;4.40;1.90;;;15.30;99.90;;;;;;5051866;28;20464;-77
2024/04/08 02:17:26;;;;;;;4.60;1.97;;;15.20;99.90;;;;;;5051613;28;20984;-76
2024/04/08 02:19:52;;;;;;;2.70;1.53;;;15.20;99.90;;;;;;5052078;28;20464;-76
2024/04/08 02:22:19;;;;;;;1.53;1.43;;;15.20;99.90;;;;;;5051786;28;20475;-76
2024/04/08 02:24:45;;;;;;;2.60;1.63;;;15.20;99.90;;;;;;5051240;28;20216;-76
2024/04/08 02:27:12;;;;;;;6.30;2.27;;;15.10;99.90;;;;;;5051783;28;20845;-76
2024/04/08 02:29:37;;;;;;;1.60;1.47;;;15.10;99.90;;;;;;5051490;28;20213;-76
2024/04/08 02:32:06;;;;;;;8.93;2.20;;;15.10;99.90;;;;;;5051381;28;20495;-76
2024/04/08 02:34:32;;;;;;;5.23;2.30;;;15.10;99.90;;;;;;5051210;28;20471;-76
2024/04/08 02:36:58;;;;;;;4.53;1.60;;;15.00;99.90;;;;;;5051505;28;20479;-76
2024/04/08 02:39:24;;;;;;;3.23;2.20;;;15.00;99.90;;;;;;5051552;28;20265;-76
2024/04/08 02:41:51;;;;;;;4.20;1.83;;;15.00;99.90;;;;;;5051274;28;20487;-76
2024/04/08 02:44:17;;;;;;;3.93;1.90;;;14.90;99.90;;;;;;5051012;28;20595;-76
2024/04/08 02:46:43;;;;;;;2.80;2.27;;;14.90;99.90;;;;;;5050816;28;20490;-76
2024/04/08 02:49:10;;;;;;;2.70;1.67;;;14.80;99.90;;;;;;5051421;28;20210;-76
2024/04/08 02:51:37;;;;;;;4.20;2.03;;;14.80;99.90;;;;;;5050963;28;20569;-76
2024/04/08 02:54:03;;;;;;;2.17;1.77;;;14.80;99.90;;;;;;5051103;28;20467;-75
2024/04/08 02:56:30;;;;;;;4.60;2.23;;;14.70;99.90;;;;;;5051029;28;20475;-75
2024/04/08 02:58:56;;;;;;;6.63;2.13;;;14.60;99.90;;;;;;5050944;28;20840;-75
2024/04/08 03:01:22;;;;;;;4.80;2.20;;;14.60;99.90;;;;;;5051019;28;20513;-75
2024/04/08 03:03:48;;;;;;;2.20;1.60;;;14.50;99.90;;;;;;5050930;28;20205;-75
2024/04/08 03:06:18;;;;;;;5.93;2.60;;;14.40;99.90;;;;;;5045487;28;20552;-75
2024/04/08 03:08:44;;;;;;;3.77;2.10;;;14.40;99.90;;;;;;5042762;28;20225;-75
2024/04/08 03:11:11;;;;;;;7.53;2.83;;;14.30;99.90;;;;;;5043504;28;20563;-74
2024/04/08 03:13:38;;;;;;;1.87;1.60;;;14.20;99.90;;;;;;5042050;28;20587;-74
2024/04/08 03:16:05;;;;;;;2.33;2.00;;;14.20;99.90;;;;;;5044378;28;20463;-75
2024/04/08 03:18:31;;;;;;;3.60;1.23;;;14.10;99.90;;;;;;5042284;28;20492;-75
2024/04/08 03:20:59;;;;;;;6.83;2.10;;;14.10;99.90;;;;;;5043159;28;20984;-74
2024/04/08 03:23:27;;;;;;;4.50;1.90;;;14.00;99.90;;;;;;5042782;28;20205;-74
2024/04/08 03:25:58;;;;;;;3.07;1.87;;;13.90;99.90;;;;;;5042709;28;20470;-74
2024/04/08 03:28:24;;;;;;;3.07;2.20;;;13.70;99.90;;;;;;5042948;28;20467;-75
2024/04/08 03:30:51;;;;;;;2.97;2.20;;;13.70;99.90;;;;;;5042878;28;20456;-74
2024/04/08 03:33:20;;;;;;;4.40;2.00;;;13.60;99.90;;;;;;5041768;28;20466;-75
2024/04/08 03:35:47;;;;;;;3.60;1.73;;;13.60;99.90;;;;;;5042066;28;20457;-75
2024/04/08 03:38:14;;;;;;;2.40;2.10;;;13.50;99.90;;;;;;5040123;28;20571;-75
2024/04/08 03:40:42;;;;;;;3.20;2.10;;;13.40;99.90;;;;;;5041065;28;20468;-74
2024/04/08 03:43:08;;;;;;;2.27;1.77;;;13.40;99.90;;;;;;5043966;28;20470;-74
2024/04/08 03:45:34;;;;;;;2.90;2.10;;;13.40;99.90;;;;;;5044532;28;20465;-75
2024/04/08 03:48:01;;;;;;;2.80;2.40;;;13.30;99.90;;;;;;5046368;28;20447;-73
2024/04/08 03:50:27;;;;;;;2.90;1.67;;;13.30;99.90;;;;;;5048805;28;20658;-73
2024/04/08 03:52:54;;;;;;;6.30;1.67;;;13.20;99.90;;;;;;5048396;28;20464;-74
2024/04/08 03:55:23;;;;;;;2.13;1.67;;;13.20;99.90;;;;;;5048867;28;20471;-74
2024/04/08 03:57:51;;;;;;;3.60;1.90;;;13.20;99.90;;;;;;5046911;28;20846;-74
2024/04/08 04:00:17;;;;;;;5.10;2.10;;;13.20;99.90;;;;;;5050391;28;20474;-73
2024/04/08 04:02:43;;;;;;;3.57;2.10;;;13.20;99.90;;;;;;5049881;28;20467;-74
2024/04/08 04:05:09;;;;;;;3.90;2.60;;;13.10;99.90;;;;;;5050096;28;20964;-74
2024/04/08 04:07:36;;;;;;;2.40;2.10;;;13.10;99.90;;;;;;5050134;28;20482;-73
2024/04/08 04:10:04;;;;;;;4.17;1.80;;;13.10;99.90;;;;;;5049839;28;20202;-74
2024/04/08 04:12:33;;;;;;;3.83;1.90;;;13.00;99.90;;;;;;5050119;28;20912;-74
2024/04/08 04:15:00;;;;;;;2.37;1.90;;;13.00;99.90;;;;;;5049924;28;20467;-74
2024/04/08 04:17:27;;;;;;;2.53;2.07;;;13.00;99.90;;;;;;5050588;28;20520;-74
2024/04/08 04:19:53;;;;;;;7.07;2.40;;;13.10;99.90;;;;;;5050662;28;20907;-74
2024/04/08 04:22:19;;;;;;;12.40;3.07;;;13.00;99.90;;;;;;5050879;28;20570;-75
2024/04/08 04:24:45;;;;;;;6.03;2.20;;;13.00;99.90;;;;;;5053345;28;20209;-73
2024/04/08 04:27:12;;;;;;;3.60;2.50;;;13.00;99.90;;;;;;5050685;28;20479;-74
2024/04/08 04:29:38;;;;;;;4.40;1.67;;;13.00;99.90;;;;;;5052838;28;20467;-74
2024/04/08 04:32:07;;;;;;;2.90;2.13;;;12.90;99.90;;;;;;5053882;28;20959;-74
2024/04/08 04:34:33;;;;;;;4.60;2.30;;;12.90;99.90;;;;;;5053775;28;20241;-74
2024/04/08 04:36:59;;;;;;;3.17;1.97;;;12.80;99.90;;;;;;5053284;28;20572;-74
2024/04/08 04:39:25;;;;;;;3.10;2.23;;;12.80;99.90;;;;;;5054675;28;20494;-74
2024/04/08 04:41:53;;;;;;;7.27;2.67;;;12.70;99.90;;;;;;5053659;28;20459;-74
2024/04/08 04:44:19;;;;;;;3.00;2.10;;;12.70;99.90;;;;;;5053458;28;20466;-74
2024/04/08 04:46:46;;;;;;;2.30;2.07;;;12.70;99.90;;;;;;5053178;28;20483;-74
2024/04/08 04:49:13;;;;;;;3.93;2.00;;;12.60;99.90;;;;;;5053570;28;20216;-74
2024/04/08 04:51:39;;;;;;;2.60;1.87;;;12.60;99.90;;;;;;5052868;28;20537;-74
2024/04/08 04:54:05;;;;;;;2.20;2.00;;;12.60;99.90;;;;;;5053248;28;20464;-74
2024/04/08 04:56:32;;;;;;;4.83;2.37;;;12.60;99.90;;;;;;5053593;28;20471;-74
2024/04/08 04:58:58;;;;;;;3.13;1.97;;;12.60;99.90;;;;;;5053006;28;20261;-74
2024/04/08 05:01:24;;;;;;;4.60;2.10;;;12.60;99.90;;;;;;5053236;28;20814;-74
2024/04/08 05:03:50;;;;;;;4.73;1.87;;;12.50;99.90;;;;;;5053120;28;20209;-74
2024/04/08 05:06:18;;;;;;;4.37;2.20;;;12.50;99.90;;;;;;5052889;28;20481;-74
2024/04/08 05:08:44;;;;;;;2.40;1.93;;;12.50;99.90;;;;;;5052930;28;20229;-74
2024/04/08 05:11:11;;;;;;;4.57;2.53;;;12.50;99.90;;;;;;5053012;28;20463;-74
2024/04/08 05:13:37;;;;;;;3.93;2.47;;;12.60;99.90;;;;;;5053258;28;20535;-74
2024/04/08 05:16:05;;;;;;;8.50;2.13;;;12.60;99.90;;;;;;5052330;28;20472;-73
2024/04/08 05:18:32;;;;;;;5.33;2.07;;;12.60;99.90;;;;;;5052984;28;20225;-74
2024/04/08 05:20:59;;;;;;;3.20;1.73;;;12.70;99.90;;;;;;5052675;28;20513;-75
2024/04/08 05:23:26;;;;;;;2.13;1.90;;;12.90;99.90;;;;;;5052949;28;20459;-74
2024/04/08 05:25:54;;;;;;;2.03;1.83;;;13.10;99.90;;;;;;5052525;28;20463;-74
2024/04/08 05:28:20;;;;;;;3.50;1.80;;;13.30;99.90;;;;;;5052774;28;20479;-74
2024/04/08 05:30:48;;;;;;;5.10;2.27;;;13.40;99.90;;;;;;5052737;28;20463;-75
2024/04/08 05:33:14;;;;;;;3.73;1.77;;;13.50;99.90;;;;;;5052304;28;20456;-74
2024/04/08 05:35:43;;;;;;;1.90;1.53;;;13.60;99.90;;;;;;5052493;28;20961;-75
2024/04/08 05:38:09;;;;;;;2.33;1.73;;;13.70;99.90;;;;;;5052208;28;20488;-76
2024/04/08 05:40:38;;;;;;;3.20;1.70;;;13.70;99.90;;;;;;5052079;28;20520;-75
2024/04/08 05:43:04;;;;;;;4.20;2.43;;;13.80;99.90;;;;;;5052169;28;20861;-74
2024/04/08 05:45:31;;;;;;;8.60;2.63;;;13.80;99.90;;;;;;5052407;28;20468;-75
2024/04/08 05:47:57;;;;;;;3.50;2.60;;;13.80;99.90;;;;;;5051328;28;20475;-74
2024/04/08 05:50:24;;;;;;;3.53;2.23;;;13.90;99.90;;;;;;5050482;28;20969;-74
2024/04/08 05:52:51;;;;;;;2.20;1.90;;;13.90;99.90;;;;;;5052032;28;20288;-74
2024/04/08 05:55:18;;;;;;;3.30;1.73;;;13.90;99.90;;;;;;5052176;28;21048;-74
2024/04/08 05:57:45;;;;;;;3.70;2.30;;;14.00;99.90;;;;;;5052059;28;20483;-74
2024/04/08 06:00:15;;;;;;;3.60;2.13;;;14.00;99.90;;;;;;5052027;28;20467;-74
2024/04/08 06:02:41;;;;;;;2.97;1.93;;;14.10;99.90;;;;;;5052506;28;20901;-74
2024/04/08 06:05:09;;;;;;;2.10;1.83;;;14.20;99.90;;;;;;5051721;28;20478;-74
2024/04/08 06:07:36;;;;;;;4.23;2.10;;;14.20;99.90;;;;;;5052865;28;20483;-74
2024/04/08 06:10:02;;;;;;;3.10;1.90;;;14.30;99.90;;;;;;5052447;28;20468;-74
2024/04/08 06:12:28;;;;;;;6.40;1.93;;;14.40;99.90;;;;;;5052683;28;20537;-74
2024/04/08 06:14:56;;;;;;;5.00;2.70;;;14.40;99.90;;;;;;5051913;28;20841;-74
2024/04/08 06:17:22;;;;;;;2.83;2.57;;;14.50;99.90;;;;;;5046133;28;20312;-74
2024/04/08 06:19:49;;;;;;;11.03;2.60;;;14.60;99.90;;;;;;5052166;28;20562;-74
2024/04/08 06:22:15;;;;;;;1.90;1.80;;;14.70;99.90;;;;;;5051845;28;20464;-74
2024/04/08 06:24:42;;;;;;;2.50;2.10;;;14.80;99.90;;;;;;5051807;28;20467;-74
2024/04/08 06:27:08;;;;;;;1.93;1.67;;;14.90;99.90;;;;;;5051420;28;20480;-74
2024/04/08 06:29:34;;;;;;;2.90;2.20;;;15.00;99.90;;;;;;5051784;28;20952;-74
2024/04/08 06:32:03;;;;;;;3.70;2.00;;;15.10;99.90;;;;;;5051524;28;20201;-74
2024/04/08 06:34:30;;;;;;;4.30;1.70;;;15.20;99.90;;;;;;5051651;28;20471;-74
2024/04/08 06:36:55;;;;;;;3.40;2.40;;;15.40;99.90;;;;;;5051636;28;20486;-76
2024/04/08 06:39:22;;;;;;;3.30;1.80;;;15.50;99.90;;;;;;5044670;28;20479;-76
2024/04/08 06:41:48;;;;;;;5.60;2.20;;;15.60;99.90;;;;;;5051229;28;20208;-75
2024/04/08 06:44:15;;;;;;;3.73;2.13;;;15.70;99.90;;;;;;5051141;28;20456;-74
2024/04/08 06:46:40;;;;;;;6.33;2.57;;;15.90;99.90;;;;;;5051102;28;20209;-75
2024/04/08 06:49:09;;;;;;;3.63;1.97;;;16.10;99.90;;;;;;5050752;28;20475;-75
2024/04/08 06:51:35;;;;;;;7.83;3.00;;;16.20;99.90;;;;;;5051110;28;20197;-75
2024/04/08 06:54:01;;;;;;;2.97;2.17;;;16.40;99.90;;;;;;5050839;28;20464;-74
2024/04/08 06:56:27;;;;;;;3.23;1.47;;;16.50;99.90;;;;;;5051288;28;20201;-75
2024/04/08 06:58:54;;;;;;;2.13;1.87;;;16.70;99.90;;;;;;5050109;28;20479;-75
2024/04/08 07:01:20;;;;;;;2.73;2.00;;;16.90;99.90;;;;;;5050819;28;20209;-75
2024/04/08 07:03:47;;;;;;;5.27;2.57;;;17.10;99.90;;;;;;5051405;28;20468;-74
2024/04/08 07:06:15;;;;;;;3.77;2.40;;;17.30;99.90;;;;;;5050355;28;20463;-75
2024/04/08 07:08:42;;;;;;;5.37;2.50;;;17.40;99.90;;;;;;5051145;28;20537;-74
2024/04/08 07:11:07;;;;;;;4.10;2.20;;;17.60;99.90;;;;;;5050476;28;21018;-74
2024/04/08 07:13:36;;;;;;;7.73;2.40;;;17.80;99.90;;;;;;5051027;28;20551;-74
2024/04/08 07:16:03;;;;;;;7.60;4.10;;;18.00;99.90;;;;;;5050460;28;20197;-74
2024/04/08 07:18:30;;;;;;;4.00;2.33;;;18.20;99.90;;;;;;5051114;28;20483;-74
2024/04/08 07:20:56;;;;;;;2.37;1.87;;;18.30;99.90;;;;;;5050670;28;20462;-75
2024/04/08 07:23:24;;;;;;;11.93;2.30;;;18.50;99.90;;;;;;5050768;28;20464;-74
2024/04/08 07:25:51;;;;;;;3.13;2.03;;;18.80;99.90;;;;;;5050540;28;20209;-74
2024/04/08 07:28:18;;;;;;;4.93;1.70;;;19.00;99.90;;;;;;5050611;28;20910;-74
2024/04/08 07:30:44;;;;;;;5.83;2.00;;;19.20;99.90;;;;;;5050923;28;20460;-74
2024/04/08 07:33:10;;;;;;;6.40;2.37;;;19.30;99.90;;;;;;5050210;28;20474;-75
2024/04/08 07:35:36;;;;;;;1.90;1.67;;;19.50;99.70;;;;;;5050990;28;20209;-77
2024/04/08 07:38:04;;;;;;;4.37;1.73;;;19.70;99.70;;;;;;5052678;28;20511;-77
2024/04/08 07:40:31;;;;;;;5.80;2.23;;;19.90;98.70;;;;;;5052847;28;20991;-77
2024/04/08 07:42:58;;;;;;;1.93;1.70;;;20.10;98.90;;;;;;5051110;28;20468;-77
2024/04/08 07:45:24;;;;;;;2.23;1.77;;;20.40;99.90;;;;;;5050693;28;20467;-76
2024/04/08 07:47:51;;;;;;;4.73;2.20;;;20.60;99.90;;;;;;5050653;28;20519;-76
2024/04/08 07:50:17;;;;;;;8.10;2.53;;;20.90;99.90;;;;;;5050669;28;20460;-77
2024/04/08 07:52:44;;;;;;;4.63;2.13;;;21.00;99.80;;;;;;5051246;28;20490;-77
2024/04/08 07:55:09;;;;;;;4.00;2.30;;;21.30;99.90;;;;;;5050335;28;20471;-77
2024/04/08 07:57:37;;;;;;;3.20;1.87;;;21.60;99.80;;;;;;5050951;28;20495;-75
2024/04/08 08:00:04;;;;;;;5.53;2.40;;;21.90;98.80;;;;;;5050500;28;20224;-77
2024/04/08 08:02:30;;;;;;;6.20;1.70;;;22.30;96.20;;;;;;5058800;28;20589;-76
2024/04/08 08:04:56;;;;;;;6.13;2.17;;;22.50;95.70;;;;;;5053781;28;20474;-77
2024/04/08 08:07:23;;;;;;;4.83;2.33;;;22.60;94.10;;;;;;5054493;28;20482;-76
2024/04/08 08:09:50;;;;;;;3.00;2.17;;;22.80;93.90;;;;;;5055163;28;20205;-77
2024/04/08 08:12:18;;;;;;;3.00;1.77;;;23.10;92.50;;;;;;5053928;28;20507;-76
2024/04/08 08:14:46;;;;;;;5.33;1.70;;;23.10;91.80;;;;;;5054328;28;20556;-76
2024/04/08 08:17:13;;;;;;;2.80;2.60;;;22.90;90.50;;;;;;5056219;28;20483;-77
2024/04/08 08:19:40;;;;;;;3.43;2.13;;;22.80;91.70;;;;;;5065931;28;21041;-77
2024/04/08 08:22:07;;;;;;;2.23;1.70;;;22.80;90.30;;;;;;5055914;28;20459;-77
2024/04/08 08:24:35;;;;;;;4.37;2.63;;;23.10;90.80;;;;;;5054327;28;20518;-75
2024/04/08 08:27:01;;;;;;;1.83;1.53;;;23.20;89.60;;;;;;5062608;28;21000;-75
2024/04/08 08:29:29;;;;;;;2.70;1.90;;;23.60;91.30;;;;;;5055076;28;20842;-76
2024/04/08 08:31:57;;;;;;;1.97;1.80;;;24.20;90.20;;;;;;5055123;28;20920;-76
2024/04/08 08:34:23;;;;;;;3.57;1.60;;;24.40;85.90;;;;;;5045850;28;20460;-75
2024/04/08 08:36:50;;;;;;;3.60;1.70;;;24.80;84.70;;;;;;5054767;28;20479;-75
2024/04/08 08:39:16;;;;;;;3.87;1.30;;;24.80;80.30;;;;;;5053531;28;21016;-75
2024/04/08 08:41:44;;;;;;;1.73;1.63;;;24.60;78.20;;;;;;5059967;28;20469;-76
2024/04/08 08:44:10;;;;;;;3.17;1.70;;;24.60;78.30;;;;;;5054844;28;20216;-77
2024/04/08 08:46:37;;;;;;;3.70;1.87;;;24.90;79.90;;;;;;5054429;28;20840;-77
2024/04/08 08:49:05;;;;;;;5.47;1.87;;;25.40;79.10;;;;;;5054360;28;20466;-77
2024/04/08 08:51:32;;;;;;;2.20;1.67;;;25.70;78.60;;;;;;5066348;28;20532;-76
2024/04/08 08:53:59;;;;;;;2.77;1.70;;;25.90;77.30;;;;;;5064622;28;20454;-75
2024/04/08 08:56:29;;;;;;;5.03;2.37;;;26.50;80.00;;;;;;5053363;28;20467;-76
2024/04/08 08:58:57;;;;;;;3.50;1.77;;;26.80;79.80;;;;;;5061261;28;20482;-73
2024/04/08 09:01:25;;;;;;;5.37;2.70;;;26.80;77.50;;;;;;5053575;28;20517;-74
2024/04/08 09:03:52;;;;;;;7.00;1.90;;;26.50;77.70;;;;;;5053592;28;20838;-73
2024/04/08 09:06:21;;;;;;;4.07;1.63;;;26.40;76.50;;;;;;5052908;28;20469;-74
2024/04/08 09:08:46;;;;;;;2.47;1.77;;;26.40;78.20;;;;;;5050151;28;20499;-74
2024/04/08 09:11:13;;;;;;;3.40;1.60;;;26.30;77.30;;;;;;5050010;28;20560;-73
2024/04/08 09:13:39;;;;;;;4.53;4.10;;;26.20;73.30;;;;;;5052371;28;20210;-73
2024/04/08 09:16:06;;;;;;;4.40;1.50;;;25.90;72.60;;;;;;5050300;28;20470;-73
2024/04/08 09:18:32;;;;;;;3.50;1.90;;;25.80;73.50;;;;;;5051997;28;20263;-73
2024/04/08 09:20:59;;;;;;;4.30;2.17;;;26.20;75.90;;;;;;5060752;28;20994;-73
2024/04/08 09:23:32;;;;;;;3.80;2.23;;;27.00;72.00;;;;;;5048529;28;20201;-73
2024/04/08 09:25:59;;;;;;;2.47;1.73;;;28.00;73.20;;;;;;5038733;28;20471;-73
2024/04/08 09:28:26;;;;;;;3.87;1.70;;;28.50;72.70;;;;;;5032875;28;20485;-73
2024/04/08 09:30:53;;;;;;;2.70;1.60;;;28.50;76.40;;;;;;5030640;28;20464;-73
2024/04/08 09:33:19;;;;;;;2.50;1.20;;;28.80;77.00;;;;;;5034624;28;20463;-74
2024/04/08 09:35:46;;;;;;;2.27;1.63;;;28.80;67.70;;;;;;5033904;28;20483;-74
2024/04/08 09:38:13;;;;;;;4.17;2.00;;;28.50;67.40;;;;;;5034745;28;20476;-73
2024/04/08 09:40:43;;;;;;;3.10;2.17;;;28.90;78.20;;;;;;5033357;28;20480;-74
2024/04/08 09:43:11;;;;;;;2.70;1.43;;;29.00;78.60;;;;;;5034600;28;20987;-74
2024/04/08 09:45:38;;;;;;;4.03;2.20;;;29.10;81.10;;;;;;5033916;28;20970;-74
2024/04/08 09:48:05;;;;;;;2.20;1.73;;;29.40;80.30;;;;;;5035462;28;20480;-74
2024/04/08 09:50:35;;;;;;;4.13;1.90;;;29.80;78.90;;;;;;5035070;28;20453;-74
2024/04/08 09:53:02;;;;;;;4.63;1.93;;;30.30;80.40;;;;;;5036345;28;20464;-74
2024/04/08 09:55:30;;;;;;;3.20;1.70;;;30.80;76.90;;;;;;5035395;28;20471;-74
2024/04/08 09:58:00;;;;;;;1.90;1.70;;;31.30;77.20;;;;;;5035424;28;20854;-74
2024/04/08 10:00:30;;;;;;;2.47;1.63;;;31.80;76.60;;;;;;5034601;28;20483;-74
2024/04/08 10:02:59;;;;;;;2.33;1.67;;;32.10;75.80;;;;;;5034942;28;20461;-74
2024/04/08 10:05:26;;;;;;;4.23;2.10;;;32.10;73.70;;;;;;5034190;28;20463;-74
2024/04/08 10:07:52;;;;;;;3.00;1.30;;;32.20;68.60;;;;;;5038450;28;20498;-74
2024/04/08 10:10:19;;;;;;;3.03;2.57;;;32.20;68.80;;;;;;5042789;28;20841;-74
2024/04/08 10:12:45;;;;;;;2.83;1.70;;;32.50;69.80;;;;;;5035842;28;20853;-74
2024/04/08 10:15:14;;;;;;;1.77;1.40;;;32.60;67.30;;;;;;5036390;28;20547;-74
2024/04/08 10:17:44;;;;;;;2.47;1.50;;;32.70;64.00;;;;;;5038235;28;20233;-74
2024/04/08 10:20:13;;;;;;;2.50;1.33;;;32.50;64.70;;;;;;5037145;28;21165;-74
2024/04/08 10:22:39;;;;;;;2.63;1.90;;;32.30;64.40;;;;;;5034963;28;20941;-73
2024/04/08 10:25:06;;;;;;;2.47;1.73;;;32.20;63.30;;;;;;5036371;28;20486;-74
2024/04/08 10:27:34;;;;;;;7.30;1.60;;;32.30;63.20;;;;;;5034478;28;20491;-73
2024/04/08 10:30:01;;;;;;;1.83;1.40;;;32.80;63.60;;;;;;5035642;28;20562;-73
2024/04/08 10:32:28;;;;;;;3.20;1.30;;;33.20;66.30;;;;;;5035602;28;20466;-73
2024/04/08 10:34:55;;;;;;;4.07;1.43;;;33.60;64.20;;;;;;5034850;28;20527;-73
2024/04/08 10:37:21;;;;;;;2.70;1.87;;;34.00;65.00;;;;;;5034805;28;20480;-73
2024/04/08 10:39:48;;;;;;;3.90;1.50;;;34.30;64.60;;;;;;5034998;28;20989;-73
2024/04/08 10:42:15;;;;;;;4.33;1.60;;;34.10;61.70;;;;;;5036517;28;20206;-75
2024/04/08 10:44:42;;;;;;;4.40;1.93;;;34.20;64.50;;;;;;5042000;28;20552;-73
2024/04/08 10:47:09;;;;;;;2.60;1.67;;;34.50;63.80;;;;;;5038678;28;21008;-74
2024/04/08 10:49:38;;;;;;;4.37;1.87;;;35.10;64.40;;;;;;5038944;28;20464;-74
2024/04/08 10:52:04;;;;;;;3.63;1.60;;;35.20;67.00;;;;;;5042659;28;20555;-75
2024/04/08 10:54:32;;;;;;;9.40;1.90;;;35.20;64.00;;;;;;5041964;28;20467;-74
2024/04/08 10:56:58;;;;;;;4.60;1.63;;;35.10;60.60;;;;;;5035914;28;20522;-75
2024/04/08 10:59:25;;;;;;;5.10;1.90;;;35.30;61.80;;;;;;5040744;28;20487;-74
2024/04/08 11:01:56;;;;;;;4.80;1.60;;;35.50;61.70;;;;;;5035248;28;20892;-74
2024/04/08 11:04:24;;;;;;;2.97;1.60;;;35.60;63.80;;;;;;5044864;28;20999;-74
2024/04/08 11:08:16;;;;;;;2.63;1.63;;;35.70;61.10;;;;;;5488903;25;20597;-74
2024/04/08 11:10:44;;;;;;;1.90;1.27;;;35.60;60.30;;;;;;5477535;26;20538;-74
2024/04/08 11:13:14;;;;;;;1.97;1.30;;;35.50;61.10;;;;;;5469585;26;20588;-74
2024/04/08 11:15:47;;;;;;;2.20;1.50;;;35.70;60.00;;;;;;5466464;26;20474;-74
2024/04/08 11:18:16;;;;;;;2.37;1.57;;;36.00;60.50;;;;;;5481583;26;20508;-74
2024/04/08 11:20:42;;;;;;;2.70;1.70;;;36.10;58.40;;;;;;5461492;26;20554;-73
2024/04/08 11:23:13;;;;;;;5.77;1.90;;;36.00;57.20;;;;;;5478870;26;20474;-73
2024/04/08 11:25:42;;;;;;;4.17;2.03;;;35.70;57.10;;;;;;5463799;26;20974;-74
2024/04/08 11:28:11;;;;;;;2.37;1.80;;;34.80;57.90;;;;;;5478959;26;20467;-74
2024/04/08 11:30:38;;;;;;;2.83;1.83;;;34.90;60.80;;;;;;5476882;26;20512;-73
2024/04/08 11:33:07;;;;;;;1.93;1.43;;;35.10;62.10;;;;;;5476107;26;20520;-74
2024/04/08 11:35:35;;;;;;;2.90;1.50;;;35.10;62.80;;;;;;5477677;26;20453;-73
2024/04/08 11:38:01;;;;;;;5.20;2.20;;;34.90;58.80;;;;;;5478568;26;20817;-73
2024/04/08 11:40:29;;;;;;;5.80;2.00;;;34.60;63.20;;;;;;5479253;26;20535;-74
2024/04/08 11:42:58;;;;;;;1.93;1.33;;;34.70;64.40;;;;;;5477500;26;20275;-74
2024/04/08 11:45:28;;;;;;;4.40;2.00;;;34.40;61.40;;;;;;5472497;26;20457;-74
2024/04/08 11:47:54;;;;;;;10.50;1.80;;;34.50;62.80;;;;;;5476842;26;20902;-73
2024/04/08 11:50:22;;;;;;;3.93;1.63;;;34.60;64.20;;;;;;5482397;26;20562;-74
2024/04/08 11:52:48;;;;;;;5.27;1.63;;;34.70;61.60;;;;;;5477207;26;20523;-73
2024/04/08 11:55:18;;;;;;;1.80;1.30;;;34.90;63.00;;;;;;5481856;26;20910;-74
2024/04/08 11:57:46;;;;;;;1.80;1.33;;;35.10;63.40;;;;;;5468768;26;20234;-74
2024/04/08 12:00:20;;;;;;;3.77;1.90;;;35.10;61.50;;;;;;5482862;26;20549;-76
2024/04/08 12:02:47;;;;;;;4.77;1.70;;;35.10;61.00;;;;;;5469203;26;20465;-74
2024/04/08 12:05:16;;;;;;;2.47;1.60;;;35.30;61.80;;;;;;5482018;26;20528;-74
2024/04/08 12:07:42;;;;;;;3.63;1.90;;;35.10;58.20;;;;;;5478225;26;20529;-74
2024/04/08 12:10:12;;;;;;;3.23;1.83;;;35.20;62.30;;;;;;5481790;26;20474;-74
2024/04/08 12:12:43;;;;;;;2.40;1.67;;;35.30;63.20;;;;;;5470579;26;20943;-73
2024/04/08 12:15:12;;;;;;;3.30;2.33;;;35.10;63.80;;;;;;5470599;26;20561;-74
2024/04/08 12:17:41;;;;;;;4.83;2.00;;;34.90;64.30;;;;;;5473653;26;20486;-74
2024/04/08 12:20:12;;;;;;;7.17;2.37;;;34.80;62.70;;;;;;5460686;26;20510;-74
2024/04/08 12:22:40;;;;;;;3.90;1.97;;;34.40;61.90;;;;;;5455148;26;20510;-74
2024/04/08 12:25:09;;;;;;;4.63;1.80;;;34.50;65.00;;;;;;5459927;26;20467;-74
2024/04/08 12:27:37;;;;;;;4.67;2.03;;;34.80;64.40;;;;;;5456572;26;20521;-73
2024/04/08 12:30:06;;;;;;;2.53;1.80;;;34.90;64.70;;;;;;5460832;26;20487;-74
2024/04/08 12:32:32;;;;;;;3.20;2.13;;;34.90;63.70;;;;;;5466064;26;20461;-74
2024/04/08 12:35:03;;;;;;;3.87;2.40;;;34.20;61.80;;;;;;5458873;26;20874;-74
2024/04/08 12:37:28;;;;;;;3.30;2.27;;;33.40;63.80;;;;;;5467557;26;20279;-74
2024/04/08 12:39:57;;;;;;;3.53;1.70;;;32.70;65.60;;;;;;5459654;26;20479;-73
2024/04/08 12:42:23;;;;;;;3.50;2.30;;;32.20;66.10;;;;;;5457415;26;20241;-73
2024/04/08 12:44:52;;;;;;;3.70;2.23;;;32.00;63.50;;;;;;5459781;26;20543;-73